MSC Vanessa — HOWD — position and weather

sailwx.info

Track history (hours):
 
Tides and Currents Weather Stations Pressure Air Temp Water Temp Dewpoint Dewpoint Depression Visibility Wind Speed Wind Dir Waves Ship Positions

MSC Vanessa

Last reported at 2017-Jan-19 14:30 UTC. Time now 2017-Jan-20 01:32 UTC.
Position N 39°46' W 073°52'.

Length 300 m; draft 12.1 m.

Type: Cargo ship. MMSI: 356946000.

Date/timePositionNaut miles runAvg speedWind from/ knotsBaromVisibWave heightAir tempDewpointWater temp
2017-Jan-19 14:30N 39°46' W 073°52'1814.9
2017-Jan-19 13:20N 40°03' W 073°50'911.7
2017-Jan-19 12:32N 40°12' W 073°49'9 9.4
2017-Jan-19 11:33N 40°22' W 073°49'7 7.4
2017-Jan-19 10:33N 40°28' W 073°53'1211.5
2017-Jan-19 09:33N 40°37' W 074°03'5 5.2
2017-Jan-19 08:33N 40°40' W 074°08'1 1.3
2017-Jan-19 07:32N 40°41' W 074°09'0 0.0
2017-Jan-19 06:32N 40°41' W 074°09'0 0.0
2017-Jan-19 05:32N 40°41' W 074°09'0 0.0
2017-Jan-19 04:32N 40°41' W 074°09'0 0.0
2017-Jan-19 03:32N 40°41' W 074°09'0 0.0
2017-Jan-19 02:32N 40°41' W 074°09'0 0.0
2017-Jan-19 01:32N 40°41' W 074°09'0 0.0
2017-Jan-19 00:32N 40°41' W 074°09'0 0.0
2017-Jan-18 23:32N 40°41' W 074°09'0 0.0
2017-Jan-18 22:32N 40°41' W 074°09'0 0.0
2017-Jan-18 21:29N 40°41' W 074°09'0 0.0
2017-Jan-18 20:32N 40°41' W 074°09'0 0.0
2017-Jan-18 19:32N 40°41' W 074°09'0 0.0
2017-Jan-18 18:29N 40°41' W 074°09'0 0.0
2017-Jan-18 17:29N 40°41' W 074°09'0 0.0
2017-Jan-18 16:32N 40°41' W 074°09'0 0.0
2017-Jan-18 15:26N 40°41' W 074°09'0 0.0
2017-Jan-18 14:32N 40°41' W 074°09'0 0.0
2017-Jan-18 13:32N 40°41' W 074°09'0 0.0
2017-Jan-18 12:32N 40°41' W 074°09'0 0.0
2017-Jan-18 11:32N 40°41' W 074°09'0 0.0
2017-Jan-18 10:32N 40°41' W 074°09'0 0.0
2017-Jan-18 09:32N 40°41' W 074°09'0 0.0
2017-Jan-18 08:34N 40°41' W 074°09'3 2.6
2017-Jan-18 07:33N 40°39' W 074°09'4 3.9
2017-Jan-18 06:32N 40°38' W 074°04'0 0.1
2017-Jan-18 05:32N 40°38' W 074°04'0 0.0
2017-Jan-18 04:32N 40°38' W 074°04'0 0.0
2017-Jan-18 03:32N 40°38' W 074°04'0 0.2
2017-Jan-18 02:32N 40°38' W 074°04'0 0.2
2017-Jan-18 01:32N 40°38' W 074°04'0 0.0
2017-Jan-18 00:32N 40°38' W 074°04'0 0.0
2017-Jan-17 23:32N 40°38' W 074°04'0 0.0
2017-Jan-17 22:32N 40°38' W 074°04'0 0.0
2017-Jan-17 21:32N 40°38' W 074°04'0 0.0
2017-Jan-17 20:32N 40°38' W 074°04'1 0.5
2017-Jan-17 19:34N 40°38' W 074°04'4 3.9
2017-Jan-17 18:33N 40°34' W 074°02'9 8.6
2017-Jan-17 17:34N 40°29' W 073°54'8 7.6
2017-Jan-17 16:33N 40°23' W 073°47'7 6.6
2017-Jan-17 15:33N 40°17' W 073°46'27 8.9
2017-Jan-17 12:33N 39°50' W 073°41'10 9.6
2017-Jan-17 11:28N 39°40' W 073°40'11 9.5
2017-Jan-17 10:20N 39°29' W 073°40'9 9.5
2017-Jan-17 09:26N 39°20' W 073°40'8 9.5
2017-Jan-17 08:33N 39°12' W 073°40'10 9.3
2017-Jan-17 07:29N 39°02' W 073°41'9 9.3
2017-Jan-17 06:33N 38°55' W 073°48'13 9.4
2017-Jan-17 05:13N 38°44' W 073°55'8 9.5
2017-Jan-17 04:24N 38°37' W 073°60'97 9.5
2017-Jan-16 18:08N 37°13' W 075°01'610.2
2017-Jan-16 17:33N 37°09' W 075°06'1110.2
2017-Jan-16 16:29N 37°00' W 075°16'2210.3
2017-Jan-16 14:19N 36°49' W 075°40'6 8.3
2017-Jan-16 13:33N 36°49' W 075°48'9 8.7
2017-Jan-16 12:33N 36°55' W 075°56'1412.6
2017-Jan-16 11:27N 36°60' W 076°13'9 9.8
2017-Jan-16 10:33N 36°54' W 076°20'1 1.2
2017-Jan-16 09:33N 36°53' W 076°21'0 0.0
2017-Jan-16 08:30N 36°53' W 076°21'0 0.0
2017-Jan-16 07:33N 36°53' W 076°21'0 0.0
2017-Jan-16 06:33N 36°53' W 076°21'0 0.0
2017-Jan-16 05:33N 36°53' W 076°21'0 0.0
2017-Jan-16 04:33N 36°53' W 076°21'0 0.0
2017-Jan-16 03:33N 36°53' W 076°21'0 0.0
2017-Jan-16 02:33N 36°53' W 076°21'0 0.0
2017-Jan-16 01:33N 36°53' W 076°21'0 0.0
2017-Jan-16 00:33N 36°53' W 076°21'0 0.0
2017-Jan-15 23:33N 36°53' W 076°21'0 0.3
2017-Jan-15 22:33N 36°53' W 076°21'8 7.6
2017-Jan-15 21:33N 36°60' W 076°18'1414.3
2017-Jan-15 20:33N 36°57' W 076°00'6 5.6
2017-Jan-15 19:33N 36°54' W 075°54'6 5.6
2017-Jan-15 18:33N 36°51' W 075°48'7 7.0
2017-Jan-15 17:33N 36°47' W 075°41'  
2017-Jan-12 09:33N 27°02' W 079°37'2619.7
2017-Jan-12 08:14N 26°36' W 079°44'1419.9
2017-Jan-12 07:33N 26°24' W 079°50'2020.1
2017-Jan-12 06:33N 26°06' W 080°01'5 5.4
2017-Jan-12 05:33N 26°05' W 080°07'1 0.6
2017-Jan-12 04:32N 26°04' W 080°07'0 0.0
2017-Jan-12 03:32N 26°04' W 080°07'0 0.0
2017-Jan-12 02:32N 26°04' W 080°07'0 0.0
2017-Jan-12 01:32N 26°04' W 080°07'0 0.0
2017-Jan-12 00:32N 26°04' W 080°07'0 0.0
2017-Jan-11 23:32N 26°04' W 080°07'0 0.0
2017-Jan-11 22:29N 26°04' W 080°07'0 0.0
2017-Jan-11 21:32N 26°04' W 080°07'0 0.0
2017-Jan-11 20:32N 26°04' W 080°07'0 0.0
2017-Jan-11 19:32N 26°04' W 080°07'0 0.0
2017-Jan-11 18:32N 26°04' W 080°07'0 0.0
2017-Jan-11 17:32N 26°04' W 080°07'0 0.0
2017-Jan-11 16:32N 26°04' W 080°07'0 0.0
2017-Jan-11 15:32N 26°04' W 080°07'0 0.0
2017-Jan-11 14:32N 26°04' W 080°07'0 0.0
2017-Jan-11 13:33N 26°04' W 080°07'4 3.6
2017-Jan-11 12:33N 26°06' W 080°04'5 5.5
2017-Jan-11 11:33N 26°09' W 079°58'0 0.3
2017-Jan-11 10:33N 26°09' W 079°59'2 1.7
2017-Jan-11 09:33N 26°07' W 079°58'3 2.9
2017-Jan-11 08:33N 26°05' W 079°57'8 7.7
2017-Jan-11 07:33N 25°59' W 079°51'1212.5
2017-Jan-11 06:33N 25°50' W 079°42'1212.1
2017-Jan-11 05:33N 25°39' W 079°37'1212.3
2017-Jan-11 04:33N 25°26' W 079°37'  
Track history (hours):
 
Tides and Currents Weather Stations Pressure Air Temp Water Temp Dewpoint Dewpoint Depression Visibility Wind Speed Wind Dir Waves Ship Positions

MSC Vanessa

Last reported at 2017-Jan-19 14:30 UTC. Time now 2017-Jan-20 01:32 UTC.
Position N 39°46' W 073°52'.

Length 300 m; draft 12.1 m.

Type: Cargo ship. MMSI: 356946000.

Date/timePositionNaut miles runAvg speedWind from/ knotsBaromVisibWave heightAir tempDewpointWater temp
2017-Jan-19 14:30N 39°46' W 073°52'1814.9
2017-Jan-19 13:20N 40°03' W 073°50'911.7
2017-Jan-19 12:32N 40°12' W 073°49'9 9.4
2017-Jan-19 11:33N 40°22' W 073°49'7 7.4
2017-Jan-19 10:33N 40°28' W 073°53'1211.5
2017-Jan-19 09:33N 40°37' W 074°03'5 5.2
2017-Jan-19 08:33N 40°40' W 074°08'1 1.3
2017-Jan-19 07:32N 40°41' W 074°09'0 0.0
2017-Jan-19 06:32N 40°41' W 074°09'0 0.0
2017-Jan-19 05:32N 40°41' W 074°09'0 0.0
2017-Jan-19 04:32N 40°41' W 074°09'0 0.0
2017-Jan-19 03:32N 40°41' W 074°09'0 0.0
2017-Jan-19 02:32N 40°41' W 074°09'0 0.0
2017-Jan-19 01:32N 40°41' W 074°09'0 0.0
2017-Jan-19 00:32N 40°41' W 074°09'0 0.0
2017-Jan-18 23:32N 40°41' W 074°09'0 0.0
2017-Jan-18 22:32N 40°41' W 074°09'0 0.0
2017-Jan-18 21:29N 40°41' W 074°09'0 0.0
2017-Jan-18 20:32N 40°41' W 074°09'0 0.0
2017-Jan-18 19:32N 40°41' W 074°09'0 0.0
2017-Jan-18 18:29N 40°41' W 074°09'0 0.0
2017-Jan-18 17:29N 40°41' W 074°09'0 0.0
2017-Jan-18 16:32N 40°41' W 074°09'0 0.0
2017-Jan-18 15:26N 40°41' W 074°09'0 0.0
2017-Jan-18 14:32N 40°41' W 074°09'0 0.0
2017-Jan-18 13:32N 40°41' W 074°09'0 0.0
2017-Jan-18 12:32N 40°41' W 074°09'0 0.0
2017-Jan-18 11:32N 40°41' W 074°09'0 0.0
2017-Jan-18 10:32N 40°41' W 074°09'0 0.0
2017-Jan-18 09:32N 40°41' W 074°09'0 0.0
2017-Jan-18 08:34N 40°41' W 074°09'3 2.6
2017-Jan-18 07:33N 40°39' W 074°09'4 3.9
2017-Jan-18 06:32N 40°38' W 074°04'0 0.1
2017-Jan-18 05:32N 40°38' W 074°04'0 0.0
2017-Jan-18 04:32N 40°38' W 074°04'0 0.0
2017-Jan-18 03:32N 40°38' W 074°04'0 0.2
2017-Jan-18 02:32N 40°38' W 074°04'0 0.2
2017-Jan-18 01:32N 40°38' W 074°04'0 0.0
2017-Jan-18 00:32N 40°38' W 074°04'0 0.0
2017-Jan-17 23:32N 40°38' W 074°04'0 0.0
2017-Jan-17 22:32N 40°38' W 074°04'0 0.0
2017-Jan-17 21:32N 40°38' W 074°04'0 0.0
2017-Jan-17 20:32N 40°38' W 074°04'1 0.5
2017-Jan-17 19:34N 40°38' W 074°04'4 3.9
2017-Jan-17 18:33N 40°34' W 074°02'9 8.6
2017-Jan-17 17:34N 40°29' W 073°54'8 7.6
2017-Jan-17 16:33N 40°23' W 073°47'7 6.6
2017-Jan-17 15:33N 40°17' W 073°46'27 8.9
2017-Jan-17 12:33N 39°50' W 073°41'10 9.6
2017-Jan-17 11:28N 39°40' W 073°40'11 9.5
2017-Jan-17 10:20N 39°29' W 073°40'9 9.5
2017-Jan-17 09:26N 39°20' W 073°40'8 9.5
2017-Jan-17 08:33N 39°12' W 073°40'10 9.3
2017-Jan-17 07:29N 39°02' W 073°41'9 9.3
2017-Jan-17 06:33N 38°55' W 073°48'13 9.4
2017-Jan-17 05:13N 38°44' W 073°55'8 9.5
2017-Jan-17 04:24N 38°37' W 073°60'97 9.5
2017-Jan-16 18:08N 37°13' W 075°01'610.2
2017-Jan-16 17:33N 37°09' W 075°06'1110.2
2017-Jan-16 16:29N 37°00' W 075°16'2210.3
2017-Jan-16 14:19N 36°49' W 075°40'6 8.3
2017-Jan-16 13:33N 36°49' W 075°48'9 8.7
2017-Jan-16 12:33N 36°55' W 075°56'1412.6
2017-Jan-16 11:27N 36°60' W 076°13'9 9.8
2017-Jan-16 10:33N 36°54' W 076°20'1 1.2
2017-Jan-16 09:33N 36°53' W 076°21'0 0.0
2017-Jan-16 08:30N 36°53' W 076°21'0 0.0
2017-Jan-16 07:33N 36°53' W 076°21'0 0.0
2017-Jan-16 06:33N 36°53' W 076°21'0 0.0
2017-Jan-16 05:33N 36°53' W 076°21'0 0.0
2017-Jan-16 04:33N 36°53' W 076°21'0 0.0
2017-Jan-16 03:33N 36°53' W 076°21'0 0.0
2017-Jan-16 02:33N 36°53' W 076°21'0 0.0
2017-Jan-16 01:33N 36°53' W 076°21'0 0.0
2017-Jan-16 00:33N 36°53' W 076°21'0 0.0
2017-Jan-15 23:33N 36°53' W 076°21'0 0.3
2017-Jan-15 22:33N 36°53' W 076°21'8 7.6
2017-Jan-15 21:33N 36°60' W 076°18'1414.3
2017-Jan-15 20:33N 36°57' W 076°00'6 5.6
2017-Jan-15 19:33N 36°54' W 075°54'6 5.6
2017-Jan-15 18:33N 36°51' W 075°48'7 7.0
2017-Jan-15 17:33N 36°47' W 075°41'  
2017-Jan-12 09:33N 27°02' W 079°37'2619.7
2017-Jan-12 08:14N 26°36' W 079°44'1419.9
2017-Jan-12 07:33N 26°24' W 079°50'2020.1
2017-Jan-12 06:33N 26°06' W 080°01'5 5.4
2017-Jan-12 05:33N 26°05' W 080°07'1 0.6
2017-Jan-12 04:32N 26°04' W 080°07'0 0.0
2017-Jan-12 03:32N 26°04' W 080°07'0 0.0
2017-Jan-12 02:32N 26°04' W 080°07'0 0.0
2017-Jan-12 01:32N 26°04' W 080°07'0 0.0
2017-Jan-12 00:32N 26°04' W 080°07'0 0.0
2017-Jan-11 23:32N 26°04' W 080°07'0 0.0
2017-Jan-11 22:29N 26°04' W 080°07'0 0.0
2017-Jan-11 21:32N 26°04' W 080°07'0 0.0
2017-Jan-11 20:32N 26°04' W 080°07'0 0.0
2017-Jan-11 19:32N 26°04' W 080°07'0 0.0
2017-Jan-11 18:32N 26°04' W 080°07'0 0.0
2017-Jan-11 17:32N 26°04' W 080°07'0 0.0
2017-Jan-11 16:32N 26°04' W 080°07'0 0.0
2017-Jan-11 15:32N 26°04' W 080°07'0 0.0
2017-Jan-11 14:32N 26°04' W 080°07'0 0.0
2017-Jan-11 13:33N 26°04' W 080°07'4 3.6
2017-Jan-11 12:33N 26°06' W 080°04'5 5.5
2017-Jan-11 11:33N 26°09' W 079°58'0 0.3
2017-Jan-11 10:33N 26°09' W 079°59'2 1.7
2017-Jan-11 09:33N 26°07' W 079°58'3 2.9
2017-Jan-11 08:33N 26°05' W 079°57'8 7.7
2017-Jan-11 07:33N 25°59' W 079°51'1212.5
2017-Jan-11 06:33N 25°50' W 079°42'1212.1
2017-Jan-11 05:33N 25°39' W 079°37'1212.3
2017-Jan-11 04:33N 25°26' W 079°37'  

Dump ship's entire track history